Time;durP1;ratioP1;P1;durP2;ratioP2;P2;SDS_P1;SDS_P2;PMS_P1;PMS_P2;Temp;Humidity;BMP_temperature;BMP_pressure;BME280_temperature;BME280_humidity;BME280_pressure;Samples;Min_cycle;Max_cycle;Signal;HPM_P1;HPM_P2
2023/11/11 04:40:08;;;;;;;0.20;0.20;;;;;;;13.60;78.86;99285.81;6043482;23;20097;31
2023/11/11 07:51:10;;;;;;;0.20;0.20;;;;;;;15.40;79.52;99522.38;4921342;29;20055;-86
2023/11/11 07:53:36;;;;;;;0.20;0.20;;;;;;;15.01;79.58;99522.63;4899608;29;20058;-86
2023/11/11 07:56:14;;;;;;;0.20;0.20;;;;;;;15.28;82.48;99531.25;4917032;29;20536;-84
2023/11/11 07:58:39;;;;;;;0.20;0.20;;;;;;;15.41;83.52;99534.38;4901016;29;20412;-86
2023/11/11 08:01:06;;;;;;;0.20;0.20;;;;;;;15.42;84.14;99519.94;4898886;29;20031;-87
2023/11/11 08:03:34;;;;;;;0.20;0.20;;;;;;;15.58;83.44;99533.44;4898785;29;20035;-87
2023/11/11 08:06:00;;;;;;;0.20;0.20;;;;;;;15.40;80.22;99527.19;4898673;29;20038;-86
2023/11/11 08:08:29;;;;;;;0.25;0.25;;;;;;;15.56;79.28;99524.66;4915520;29;20031;-87
2023/11/11 08:10:55;;;;;;;0.20;0.20;;;;;;;15.60;78.51;99542.22;4915718;29;20036;-87
2023/11/11 08:13:20;;;;;;;0.20;0.20;;;;;;;15.44;79.87;99547.56;4898301;29;20421;-87
2023/11/11 08:15:46;;;;;;;0.20;0.20;;;;;;;15.39;79.12;99542.41;4898822;29;20134;-86
2023/11/11 08:18:12;;;;;;;0.20;0.20;;;;;;;15.29;80.15;99532.06;4898919;29;20032;-85
2023/11/11 08:35:41;;;;;;;0.25;0.25;;;;;;;15.23;81.17;99556.13;5029042;23;20057;-82
2023/11/11 08:38:10;;;;;;;0.20;0.20;;;;;;;15.14;83.45;99554.56;4902464;29;20039;-83
2023/11/11 08:40:36;;;;;;;0.20;0.20;;;;;;;15.34;85.35;99559.66;4879760;29;20033;-85
2023/11/11 08:43:03;;;;;;;0.20;0.20;;;;;;;15.09;87.32;99554.22;4878234;29;20363;-86
2023/11/11 08:45:30;;;;;;;0.20;0.20;;;;;;;15.18;86.63;99555.34;4876559;29;20293;-86
2023/11/11 08:47:55;;;;;;;0.20;0.20;;;;;;;15.74;86.99;99560.19;4877694;29;20082;-86
2023/11/11 08:50:21;;;;;;;0.25;0.25;;;;;;;15.98;87.75;99585.25;4873834;29;20077;-88
2023/11/11 08:52:46;;;;;;;0.20;0.20;;;;;;;15.55;92.20;99567.91;4842523;29;20061;-87
2023/11/11 08:55:12;;;;;;;0.30;0.30;;;;;;;15.64;92.37;99582.31;4857591;29;20018;-86
2023/11/11 08:57:38;;;;;;;0.30;0.30;;;;;;;15.64;87.01;99585.09;4858880;29;20026;-86
2023/11/11 09:00:08;;;;;;;0.20;0.20;;;;;;;16.03;85.48;99581.19;4861955;29;20485;-86
2023/11/11 09:02:37;;;;;;;0.20;0.20;;;;;;;16.13;84.57;99577.47;4860600;29;20072;-86
2023/11/11 09:05:02;;;;;;;0.20;0.20;;;;;;;16.28;85.26;99592.19;4860474;29;20508;-86
2023/11/11 09:07:28;;;;;;;0.20;0.20;;;;;;;15.99;85.17;99574.81;4860722;29;20029;-86
2023/11/11 09:09:54;;;;;;;0.20;0.20;;;;;;;16.23;87.23;99590.63;4860467;29;20036;-86
2023/11/11 09:12:19;;;;;;;0.20;0.20;;;;;;;15.86;89.42;99574.50;4860279;29;20446;-86
2023/11/11 09:14:45;;;;;;;0.20;0.20;;;;;;;15.69;89.97;99570.66;4860536;29;20032;-86
2023/11/11 09:17:10;;;;;;;0.20;0.20;;;;;;;15.66;91.68;99595.94;4860245;29;20379;-86
2023/11/11 09:19:36;;;;;;;0.30;0.30;;;;;;;15.24;90.71;99569.72;4860498;29;20085;-86
2023/11/11 09:22:02;;;;;;;0.20;0.20;;;;;;;15.14;92.53;99596.59;4868663;29;20069;-86
2023/11/11 09:24:27;;;;;;;0.20;0.20;;;;;;;15.03;91.26;99581.84;4878614;29;20076;-87
2023/11/11 09:26:53;;;;;;;0.20;0.20;;;;;;;15.04;91.34;99600.25;4895597;29;20456;-87
2023/11/11 09:29:19;;;;;;;0.20;0.20;;;;;;;15.13;93.74;99597.81;4879650;29;20031;-86
2023/11/11 09:31:45;;;;;;;0.20;0.20;;;;;;;15.46;94.79;99598.44;4862157;29;20035;-86
2023/11/11 09:34:12;;;;;;;0.20;0.20;;;;;;;15.57;90.69;99601.97;4860187;29;20474;-86
2023/11/11 09:36:39;;;;;;;0.20;0.20;;;;;;;15.71;88.56;99598.28;4892534;29;20201;-86
2023/11/11 09:39:07;;;;;;;0.20;0.20;;;;;;;15.59;88.40;99573.50;4878843;29;20107;-87
2023/11/11 09:41:32;;;;;;;0.20;0.20;;;;;;;15.90;87.93;99591.31;4878756;29;20040;-86
2023/11/11 09:43:58;;;;;;;0.20;0.20;;;;;;;16.14;83.61;99586.69;4878890;29;20450;-86
2023/11/11 09:46:29;;;;;;;0.25;0.25;;;;;;;16.07;80.47;99581.16;4878628;29;20040;-86
2023/11/11 09:48:55;;;;;;;0.20;0.20;;;;;;;16.37;81.68;99600.13;4894274;29;20036;-86
2023/11/11 09:51:21;;;;;;;0.20;0.20;;;;;;;16.49;78.53;99577.13;4878933;29;20013;-86
2023/11/11 09:53:47;;;;;;;0.20;0.20;;;;;;;16.89;76.40;99592.38;4878687;29;20265;-85
2023/11/11 09:56:14;;;;;;;0.30;0.30;;;;;;;17.90;71.28;99581.31;4895147;29;20025;-85
2023/11/11 09:58:40;;;;;;;0.20;0.20;;;;;;;18.18;68.49;99582.03;4878428;29;20020;-85
2023/11/11 10:01:07;;;;;;;0.20;0.20;;;;;;;18.76;64.48;99594.66;4887385;29;20028;-85
2023/11/11 10:03:32;;;;;;;0.20;0.20;;;;;;;19.04;64.66;99579.19;4879079;29;20040;-84
2023/11/11 10:05:59;;;;;;;0.20;0.20;;;;;;;18.87;70.29;99586.00;4878828;29;20028;-84
2023/11/11 10:08:24;;;;;;;0.20;0.20;;;;;;;19.29;70.04;99573.00;4879193;29;20116;-84
2023/11/11 10:10:52;;;;;;;0.20;0.20;;;;;;;19.93;67.68;99586.88;4878874;29;20128;-84
2023/11/11 10:13:19;;;;;;;0.20;0.20;;;;;;;20.01;62.07;99591.88;4895338;29;20031;-85
2023/11/11 10:15:45;;;;;;;0.20;0.20;;;;;;;19.41;60.52;99584.84;4895491;29;20024;-85
2023/11/11 10:18:11;;;;;;;0.20;0.20;;;;;;;19.69;57.16;99572.91;4878878;29;20023;-85
2023/11/11 10:20:36;;;;;;;0.20;0.20;;;;;;;19.13;59.24;99558.06;4894715;29;20092;-85
2023/11/11 10:23:02;;;;;;;0.20;0.20;;;;;;;19.94;60.47;99571.50;4878514;29;20096;-86
2023/11/11 10:25:27;;;;;;;0.20;0.20;;;;;;;20.26;55.38;99568.66;4879172;29;20178;-85
2023/11/11 10:27:54;;;;;;;0.20;0.20;;;;;;;20.48;53.79;99570.94;4878471;29;20056;-85
2023/11/11 10:30:25;;;;;;;0.20;0.20;;;;;;;20.60;51.53;99544.75;4878693;29;20507;-84
2023/11/11 10:32:54;;;;;;;0.20;0.20;;;;;;;20.49;53.14;99578.97;4894022;29;20524;-85
2023/11/11 10:35:22;;;;;;;0.20;0.20;;;;;;;19.48;55.04;99568.53;4895412;29;20059;-86
2023/11/11 10:37:50;;;;;;;0.20;0.20;;;;;;;19.26;57.04;99570.25;4880741;29;20035;-86
2023/11/11 10:40:17;;;;;;;0.20;0.20;;;;;;;19.84;52.53;99551.56;4881610;29;20033;-85
2023/11/11 10:42:44;;;;;;;0.20;0.20;;;;;;;19.55;54.33;99571.19;4877540;29;20085;-85
2023/11/11 10:45:12;;;;;;;0.20;0.20;;;;;;;19.47;55.07;99571.78;4863067;29;20040;-86
2023/11/11 10:47:39;;;;;;;0.20;0.20;;;;;;;19.78;52.86;99575.91;4862935;29;20025;-86
2023/11/11 10:50:07;;;;;;;0.20;0.20;;;;;;;19.43;54.75;99560.59;4862650;29;20025;-85
2023/11/11 10:55:54;;;;;;;0.20;0.20;;;;;;;18.40;57.18;99574.78;4885407;29;20049;-86
2023/11/11 10:58:20;;;;;;;0.20;0.20;;;;;;;18.53;59.01;99552.41;4862912;29;20514;-86
2023/11/11 11:00:48;;;;;;;0.20;0.20;;;;;;;19.45;56.07;99546.84;4871939;29;20071;-85
2023/11/11 11:03:15;;;;;;;0.20;0.20;;;;;;;18.94;56.31;99540.72;4897909;29;20093;-85
2023/11/11 11:05:55;;;;;;;0.30;0.30;;;;;;;19.11;55.65;99555.66;4897207;29;20032;-85
2023/11/11 11:08:31;;;;;;;0.20;0.20;;;;;;;19.43;53.71;99566.22;4881048;29;20033;-86
2023/11/11 11:11:17;;;;;;;0.20;0.20;;;;;;;19.03;55.58;99559.88;4880837;29;20409;-86
2023/11/11 11:13:45;;;;;;;0.20;0.20;;;;;;;19.35;57.24;99548.69;4881042;29;20040;-84
2023/11/11 11:16:26;;;;;;;0.20;0.20;;;;;;;19.94;55.52;99565.88;4896565;29;20397;-85
2023/11/11 11:18:58;;;;;;;0.20;0.20;;;;;;;20.60;52.96;99556.06;4896827;29;20033;-85
2023/11/11 11:21:27;;;;;;;0.20;0.20;;;;;;;20.54;51.10;99555.03;4881017;29;20422;-85
2023/11/11 11:23:53;;;;;;;0.20;0.20;;;;;;;20.01;50.72;99543.09;4904984;29;20052;-85
2023/11/11 11:26:29;;;;;;;0.20;0.20;;;;;;;20.87;49.17;99570.63;4913878;29;20035;-85
2023/11/11 11:29:19;;;;;;;0.20;0.20;;;;;;;21.26;50.13;99565.06;4899548;29;20028;-85
2023/11/11 11:32:06;;;;;;;0.20;0.20;;;;;;;20.91;51.95;99567.69;4899620;29;20324;-85
2023/11/11 11:34:42;;;;;;;0.20;0.20;;;;;;;21.36;50.94;99561.94;4896408;29;20045;-85
2023/11/11 11:37:10;;;;;;;0.20;0.20;;;;;;;21.18;49.93;99550.31;4896493;29;20032;-85
2023/11/11 11:39:49;;;;;;;0.20;0.20;;;;;;;20.89;49.27;99556.06;4896022;29;20315;-85
2023/11/11 11:42:19;;;;;;;0.20;0.20;;;;;;;20.48;51.15;99537.03;4897566;29;20032;-86
2023/11/11 11:44:58;;;;;;;0.20;0.20;;;;;;;19.92;53.35;99545.72;4897251;29;20036;-86
2023/11/11 11:47:32;;;;;;;0.20;0.20;;;;;;;20.35;52.39;99549.06;4898058;29;20021;-86
2023/11/11 11:50:00;;;;;;;0.20;0.20;;;;;;;20.26;52.32;99545.28;4895480;29;20056;-85
2023/11/11 11:52:25;;;;;;;0.20;0.20;;;;;;;20.73;51.71;99537.13;4880488;29;20029;-84
2023/11/11 11:54:51;;;;;;;0.20;0.20;;;;;;;21.32;50.63;99530.13;4897138;29;20080;-84
2023/11/11 11:57:17;;;;;;;0.20;0.20;;;;;;;20.54;51.36;99513.44;4893925;29;20032;-84
2023/11/11 11:59:44;;;;;;;0.20;0.20;;;;;;;20.73;52.16;99517.34;4880386;29;20025;-84
2023/11/11 12:02:11;;;;;;;0.20;0.20;;;;;;;20.27;54.40;99527.88;4896910;29;20037;-84
2023/11/11 12:04:40;;;;;;;0.20;0.20;;;;;;;20.50;54.13;99523.25;4880117;29;20024;-84
2023/11/11 12:07:09;;;;;;;0.20;0.20;;;;;;;20.09;55.75;99542.47;4895619;29;20187;-85
2023/11/11 12:09:35;;;;;;;0.20;0.20;;;;;;;20.06;54.83;99517.94;4896716;29;20035;-85
2023/11/11 12:12:09;;;;;;;0.20;0.20;;;;;;;20.73;55.01;99542.78;4896173;29;20043;-86
2023/11/11 12:14:34;;;;;;;;;;;;;;;20.33;55.51;99553.53;4880499;29;20043;-85
2023/11/11 12:17:00;;;;;;;0.20;0.20;;;;;;;20.62;54.59;99537.44;4896675;29;19915;-85
2023/11/11 12:19:26;;;;;;;0.20;0.20;;;;;;;21.28;53.35;99548.41;4896806;29;20225;-84
2023/11/11 12:21:52;;;;;;;0.20;0.20;;;;;;;20.76;53.88;99530.56;4896796;29;20373;-84
2023/11/11 12:24:22;;;;;;;0.20;0.20;;;;;;;20.65;54.76;99552.69;4879636;29;20192;-85
2023/11/11 12:26:47;;;;;;;0.20;0.20;;;;;;;20.04;56.50;99542.22;4896559;29;20025;-85
2023/11/11 12:29:13;;;;;;;0.20;0.20;;;;;;;20.09;56.38;99538.84;4879695;29;20430;-85
2023/11/11 12:31:48;;;;;;;0.20;0.20;;;;;;;19.86;55.80;99548.28;4896482;29;20489;-87
2023/11/11 12:34:15;;;;;;;0.20;0.20;;;;;;;19.86;56.34;99532.16;4895436;29;20083;-84
2023/11/11 12:36:41;;;;;;;0.20;0.20;;;;;;;19.46;57.37;99531.50;4893482;29;20091;-84
2023/11/11 12:39:11;;;;;;;0.20;0.20;;;;;;;19.01;57.83;99534.94;4896485;29;20056;-86
2023/11/11 12:41:38;;;;;;;0.20;0.20;;;;;;;19.25;58.11;99546.91;4896296;29;20096;-84
2023/11/11 12:44:07;;;;;;;0.20;0.20;;;;;;;19.79;57.31;99537.19;4896815;29;20039;-85
2023/11/11 12:46:45;;;;;;;0.20;0.20;;;;;;;19.42;59.15;99546.94;4879537;29;20044;-85
2023/11/11 12:49:16;;;;;;;0.20;0.20;;;;;;;19.23;58.66;99546.56;4895153;29;20029;-86
2023/11/11 12:51:42;;;;;;;0.20;0.20;;;;;;;19.82;56.84;99541.97;4896707;29;20074;-84
2023/11/11 12:54:12;;;;;;;0.20;0.20;;;;;;;20.33;55.54;99548.69;4896218;29;20040;-84
2023/11/11 12:56:48;;;;;;;0.20;0.20;;;;;;;20.19;55.70;99551.91;4895118;29;20157;-83
2023/11/11 12:59:14;;;;;;;0.20;0.20;;;;;;;19.51;56.11;99533.81;4879475;29;20246;-83
2023/11/11 13:01:42;;;;;;;0.20;0.20;;;;;;;19.88;56.59;99543.03;4878687;29;20063;-84
2023/11/11 13:04:12;;;;;;;0.20;0.20;;;;;;;19.96;56.32;99521.03;4879309;29;20060;-83
2023/11/11 13:06:38;;;;;;;0.20;0.20;;;;;;;19.85;55.32;99541.84;4878967;29;20036;-84
2023/11/11 13:09:14;;;;;;;0.20;0.20;;;;;;;20.12;52.17;99533.09;4879015;29;20090;-85
2023/11/11 13:11:40;;;;;;;0.20;0.20;;;;;;;20.28;50.37;99540.75;4896310;29;20028;-86
2023/11/11 13:14:07;;;;;;;0.20;0.20;;;;;;;20.33;48.83;99517.59;4895282;29;20024;-86
2023/11/11 13:16:34;;;;;;;0.20;0.20;;;;;;;20.13;50.41;99528.25;4886426;29;20416;-86
2023/11/11 13:19:01;;;;;;;0.20;0.20;;;;;;;20.00;49.83;99521.75;4913603;29;20374;-85
2023/11/11 13:21:28;;;;;;;0.20;0.20;;;;;;;19.66;52.04;99537.13;4913848;29;20036;-86
2023/11/11 13:23:58;;;;;;;0.20;0.20;;;;;;;19.61;52.54;99527.16;4914857;29;20032;-86
2023/11/11 13:26:25;;;;;;;0.20;0.20;;;;;;;19.62;53.49;99550.50;4914670;29;20028;-85
2023/11/11 13:28:51;;;;;;;0.20;0.20;;;;;;;19.65;53.25;99554.47;4913453;29;20123;-87
2023/11/11 13:31:18;;;;;;;0.20;0.20;;;;;;;19.71;52.38;99553.53;4884507;29;20027;-86
2023/11/11 13:33:48;;;;;;;0.20;0.20;;;;;;;19.78;51.84;99553.34;4894561;29;20024;-85
2023/11/11 13:36:29;;;;;;;0.20;0.20;;;;;;;19.57;53.29;99553.81;4895520;29;20479;-85
2023/11/11 13:38:58;;;;;;;0.20;0.20;;;;;;;18.75;55.34;99545.16;4890025;29;20035;-85
2023/11/11 13:41:27;;;;;;;0.20;0.20;;;;;;;18.72;55.16;99539.59;4895764;29;20076;-86
2023/11/11 13:43:55;;;;;;;0.20;0.20;;;;;;;18.64;56.41;99538.91;4878732;29;20033;-86
2023/11/11 13:46:23;;;;;;;0.20;0.20;;;;;;;18.52;57.09;99548.00;4894667;29;20120;-87
2023/11/11 13:48:48;;;;;;;0.20;0.20;;;;;;;18.41;58.19;99553.84;4894697;29;20208;-86
2023/11/11 13:51:15;;;;;;;0.20;0.20;;;;;;;18.03;59.18;99542.06;4879243;29;20032;-87
2023/11/11 13:53:41;;;;;;;0.20;0.20;;;;;;;17.72;60.48;99530.94;4894408;29;20033;-86
2023/11/11 13:56:07;;;;;;;0.20;0.20;;;;;;;17.54;62.55;99534.00;4895514;29;20024;-86
2023/11/11 13:58:33;;;;;;;0.20;0.20;;;;;;;17.84;63.38;99565.31;4895784;29;20141;-86
2023/11/11 14:00:59;;;;;;;0.20;0.20;;;;;;;17.55;64.35;99534.81;4894219;29;20374;-86
2023/11/11 14:03:25;;;;;;;0.20;0.20;;;;;;;17.43;65.53;99538.22;4894203;29;20029;-86
2023/11/11 14:05:50;;;;;;;0.20;0.20;;;;;;;17.58;65.57;99562.09;4895630;29;20107;-86
2023/11/11 14:08:17;;;;;;;0.20;0.20;;;;;;;17.62;65.96;99553.59;4893900;29;20039;-86
2023/11/11 14:10:43;;;;;;;0.20;0.20;;;;;;;17.63;65.23;99561.63;4878583;29;20053;-86
2023/11/11 14:13:09;;;;;;;0.20;0.20;;;;;;;17.44;66.78;99563.09;4881772;29;20099;-85
2023/11/11 14:15:42;;;;;;;0.20;0.20;;;;;;;17.63;67.21;99567.25;4899020;29;20025;-86
2023/11/11 14:18:11;;;;;;;0.20;0.20;;;;;;;17.23;68.49;99524.84;4897813;29;20564;-87
2023/11/11 14:20:37;;;;;;;0.22;0.22;;;;;;;17.55;69.50;99563.72;4897711;29;20020;-85
2023/11/11 14:23:04;;;;;;;0.20;0.20;;;;;;;17.49;70.95;99565.44;4881868;29;20033;-86
2023/11/11 14:25:29;;;;;;;0.20;0.20;;;;;;;17.44;71.82;99554.66;4882012;29;20035;-86
2023/11/11 14:27:55;;;;;;;0.20;0.20;;;;;;;17.40;72.17;99553.13;4898540;29;20037;-85
2023/11/11 14:30:20;;;;;;;0.20;0.20;;;;;;;17.18;73.86;99573.09;4881625;29;20443;-85
2023/11/11 14:32:47;;;;;;;0.20;0.20;;;;;;;16.99;74.28;99562.50;4881840;29;20039;-85
2023/11/11 14:35:16;;;;;;;0.20;0.20;;;;;;;17.24;74.72;99582.66;4881824;29;20056;-86
2023/11/11 14:37:42;;;;;;;0.20;0.20;;;;;;;17.22;75.06;99568.22;4881793;29;20025;-86
2023/11/11 14:40:15;;;;;;;0.20;0.20;;;;;;;17.12;73.11;99571.97;4898692;29;20032;-86
2023/11/11 14:42:42;;;;;;;0.20;0.20;;;;;;;17.01;72.32;99560.09;4883081;29;20487;-86
2023/11/11 14:45:10;;;;;;;0.20;0.20;;;;;;;17.18;71.03;99589.19;4900588;29;20026;-86
2023/11/11 14:47:35;;;;;;;0.20;0.20;;;;;;;17.11;69.83;99573.22;4898858;29;20056;-87
2023/11/11 14:50:02;;;;;;;0.20;0.20;;;;;;;16.89;70.38;99549.44;4899038;29;20043;-87
2023/11/11 14:52:28;;;;;;;0.20;0.20;;;;;;;17.16;70.94;99597.25;4882216;29;20029;-86
2023/11/11 14:54:53;;;;;;;0.20;0.20;;;;;;;16.86;72.17;99575.53;4898438;29;20025;-87
2023/11/11 14:57:18;;;;;;;0.20;0.20;;;;;;;16.92;74.00;99588.69;4895698;29;20472;-86
2023/11/11 14:59:44;;;;;;;0.20;0.20;;;;;;;16.79;75.15;99581.25;4898430;29;20029;-86
2023/11/11 15:02:10;;;;;;;0.20;0.20;;;;;;;16.79;76.00;99575.63;4896995;29;20115;-86
2023/11/11 15:04:36;;;;;;;0.20;0.20;;;;;;;16.96;73.22;99600.69;4897000;29;20025;-87
2023/11/11 15:07:05;;;;;;;0.20;0.20;;;;;;;16.98;72.70;99611.50;4881522;29;20024;-84
2023/11/11 15:09:30;;;;;;;0.30;0.30;;;;;;;16.58;74.26;99569.00;4890707;29;20108;-87
2023/11/11 15:11:56;;;;;;;0.20;0.20;;;;;;;16.75;75.25;99615.78;4881480;29;20557;-86
2023/11/11 15:14:22;;;;;;;0.20;0.20;;;;;;;16.41;75.93;99570.81;4881369;29;20028;-86
2023/11/11 15:16:47;;;;;;;0.20;0.20;;;;;;;16.46;74.76;99592.81;4897897;29;20119;-86
2023/11/11 15:19:13;;;;;;;0.20;0.20;;;;;;;16.57;73.61;99617.97;4881038;29;20056;-87
2023/11/11 15:21:46;;;;;;;0.20;0.20;;;;;;;16.49;72.27;99599.59;4896823;29;20028;-86
2023/11/11 15:24:12;;;;;;;0.20;0.20;;;;;;;16.40;70.55;99599.28;4897150;29;20024;-85
2023/11/11 15:57:27;;;;;;;0.20;0.20;;;;;;;15.69;66.66;99623.13;4935008;29;20055;-83
2023/11/11 16:09:24;;;;;;;0.30;0.30;;;;;;;15.66;67.42;99627.56;4902295;29;20556;-83
2023/11/11 16:15:13;;;;;;;0.20;0.20;;;;;;;15.36;68.81;99610.50;4902969;29;20063;-86
2023/11/11 16:17:38;;;;;;;0.20;0.20;;;;;;;15.34;69.51;99605.31;4881061;29;20028;-86
2023/11/11 17:49:29;;;;;;;0.20;0.20;;;;;;;14.67;81.73;99699.59;4922310;29;20170;-85
2023/11/11 17:58:40;;;;;;;0.20;0.20;;;;;;;14.70;81.13;99702.78;4920972;29;20111;-84
2023/11/11 18:01:06;;;;;;;0.20;0.20;;;;;;;14.35;80.98;99638.00;4905240;29;20028;-82
2023/11/11 18:07:37;;;;;;;0.20;0.20;;;;;;;14.78;81.18;99707.19;4928039;29;20059;-81
2023/11/11 18:23:44;;;;;;;0.20;0.20;;;;;;;14.77;81.52;99705.59;4925753;29;20054;-84
2023/11/11 18:36:55;;;;;;;0.20;0.20;;;;;;;14.73;81.73;99710.38;4944314;29;20106;-84
2023/11/11 18:39:49;;;;;;;0.20;0.20;;;;;;;14.54;81.80;99712.41;4901339;29;20048;-83
2023/11/11 19:09:28;;;;;;;0.20;0.20;;;;;;;14.18;85.62;99702.38;4882702;29;20129;-82
2023/11/11 19:43:35;;;;;;;0.30;0.30;;;;;;;14.28;82.42;99729.56;4887358;29;20084;-85
2023/11/11 19:46:03;;;;;;;0.20;0.20;;;;;;;14.42;82.38;99758.34;4879427;29;20029;-84
2023/11/11 20:11:07;;;;;;;0.20;0.20;;;;;;;14.50;81.69;99738.81;4924079;29;20420;-83
2023/11/11 20:13:45;;;;;;;0.20;0.20;;;;;;;14.55;81.63;99739.19;4919786;29;20028;-83
2023/11/11 20:16:13;;;;;;;0.20;0.20;;;;;;;14.44;81.87;99738.38;4918759;29;20552;-84
2023/11/11 20:54:38;;;;;;;0.30;0.30;;;;;;;14.36;80.55;99740.34;4908127;29;20287;-84
2023/11/11 21:09:16;;;;;;;0.22;0.22;;;;;;;14.14;81.36;99703.16;4886264;29;20136;-84
2023/11/11 21:14:29;;;;;;;0.20;0.20;;;;;;;14.33;82.23;99731.97;4884770;29;20040;-83
2023/11/11 21:17:40;;;;;;;0.20;0.20;;;;;;;14.37;81.48;99718.75;4880494;29;20137;-85
2023/11/11 21:40:23;;;;;;;0.20;0.20;;;;;;;14.26;83.40;99710.38;4880781;29;20056;-85
